Accueil
METAR-TAF:

METAR-TAF

Aéroports :

Aéroport de Milan-Linate

Milan, Italie

latitude: 45-26N, longitude: 009-17E, altitude: 107 m

Observation

Le bulletin a été fait il y a 31 minutes, à 06:50 UTC
Vent 3 kt de sud
Température 26°C
Humidité 65%
Pression 1016 hPa
Visibilité 10 km ou plus
pas de nuages en-dessous de 1500 mètres et pas de cumulonimbus.

METAR: LIML 110650Z 19003KT CAVOK 26/19 Q1016 NOSIG

Heure: 09:21 (07:21 UTC)

Prévision

Le bulletin a été fait il y a 2 heures et 21 minutes, à 05:00 UTC
Prévision valable du 11 à 06 UTC au 12 à 06 UTC
Vent 5 kt de direction variable
Visibilité 10 km ou plus
pas de nuages en-dessous de 1500 mètres et pas de cumulonimbus.
Probabilité 40% :
Temporairement
du 11 à 12 UTC au 11 à 18 UTC
orage, pluie

TAF: LIML 110500Z 1106/1206 VRB05KT CAVOK PROB40 TEMPO 1112/1118 TSRA

Observations et prévisions météorologiques de plus de 4000 aéroports (messages METAR et TAF).

Les stations disponibles sont représentées par des disques jaunes et rouges sur la carte.

Passer la souris dessus pour voir le nom de la station.

Cliquer dessus pour voir les observations et prévisions météorologiques.

Pour changer de carte: cliquez sur les boutons verts avec une croix noire pour zoomer, sur le bouton vert avec un tiret pour effectuer un zoom arrière, ou sur les flèches vertes pour les cartes adjacentes.


METAR-TAF: